createdAt,value
2022-08-05T00:02:40.392Z,6.00
2022-08-05T00:07:59.938Z,4.80
2022-08-05T00:13:04.162Z,5.90
2022-08-05T00:18:08.308Z,5.90
2022-08-05T00:23:12.877Z,5.70
2022-08-05T00:28:21.091Z,5.50
2022-08-05T00:34:53.187Z,6.30
2022-08-05T00:38:59.471Z,12.20
2022-08-05T00:44:03.456Z,7.70
2022-08-05T00:49:06.973Z,6.20
2022-08-05T00:54:13.568Z,5.60
2022-08-05T00:59:17.075Z,5.60
2022-08-05T01:04:26.757Z,6.20
2022-08-05T01:09:30.921Z,7.60
2022-08-05T01:14:44.633Z,5.20
2022-08-05T01:20:00.995Z,5.50
2022-08-05T01:26:18.133Z,5.70
2022-08-05T01:31:33.172Z,5.00
2022-08-05T01:37:18.005Z,6.50
2022-08-05T01:42:31.009Z,5.80
2022-08-05T01:47:39.254Z,5.50
2022-08-05T01:52:49.669Z,6.40
2022-08-05T01:58:09.315Z,7.50
2022-08-05T02:03:32.149Z,6.30
2022-08-05T02:08:44.774Z,6.90
2022-08-05T02:14:12.667Z,7.20
2022-08-05T02:19:28.273Z,5.40
2022-08-05T02:24:39.437Z,4.80
2022-08-05T02:29:58.955Z,6.30
2022-08-05T02:35:14.226Z,6.40
2022-08-05T02:40:19.398Z,6.10
2022-08-05T02:45:25.718Z,8.70
2022-08-05T02:50:30.351Z,7.60
2022-08-05T02:55:54.629Z,5.80
2022-08-05T03:01:02.704Z,7.40
2022-08-05T03:06:56.940Z,7.10
2022-08-05T03:11:55.278Z,10.80
2022-08-05T03:16:55.977Z,6.50
2022-08-05T03:21:59.386Z,6.00
2022-08-05T03:27:02.914Z,5.50
2022-08-05T03:32:11.411Z,6.00
2022-08-05T03:37:14.890Z,6.00
2022-08-05T03:42:18.272Z,5.60
2022-08-05T03:47:21.922Z,5.70
2022-08-05T03:52:37.445Z,5.20
2022-08-05T03:57:57.501Z,5.20
2022-08-05T04:03:04.427Z,8.40
2022-08-05T04:08:30.372Z,6.30
2022-08-05T04:13:50.120Z,6.70
2022-08-05T04:18:57.816Z,6.80
2022-08-05T04:24:06.249Z,5.90
2022-08-05T04:29:10.536Z,6.60
2022-08-05T04:34:18.609Z,6.90
2022-08-05T04:39:24.252Z,6.80
2022-08-05T04:44:30.876Z,6.10
2022-08-05T04:49:39.079Z,5.60
2022-08-05T04:54:58.844Z,7.90
2022-08-05T05:00:08.542Z,5.70
2022-08-05T05:05:26.332Z,7.40
2022-08-05T05:10:37.955Z,7.70
2022-08-05T05:15:57.291Z,7.10
2022-08-05T05:21:06.305Z,6.10
2022-08-05T05:26:10.462Z,6.90
2022-08-05T05:31:15.402Z,5.90
2022-08-05T05:36:22.059Z,6.40
2022-08-05T05:41:40.832Z,8.20
2022-08-05T05:46:45.269Z,7.30
2022-08-05T05:51:51.257Z,5.50
2022-08-05T05:56:56.887Z,6.00
2022-08-05T06:02:00.734Z,8.00
2022-08-05T06:07:04.464Z,7.90
2022-08-05T06:12:12.025Z,6.30
2022-08-05T06:17:22.526Z,8.50
2022-08-05T06:22:34.942Z,7.40
2022-08-05T06:28:10.685Z,7.10
2022-08-05T06:33:01.868Z,8.90
2022-08-05T06:38:10.084Z,6.50
2022-08-05T06:43:59.420Z,5.90
2022-08-05T06:48:56.050Z,7.90
2022-08-05T06:54:05.212Z,5.40
2022-08-05T06:59:15.052Z,7.80
2022-08-05T07:04:19.266Z,5.90
2022-08-05T07:09:24.984Z,6.00
2022-08-05T07:14:47.015Z,5.60
2022-08-05T07:25:23.057Z,6.00
2022-08-05T07:30:41.699Z,7.30
2022-08-05T07:36:04.136Z,5.50
2022-08-05T07:42:13.763Z,7.50
2022-08-05T07:46:41.085Z,7.50
2022-08-05T07:51:54.268Z,6.00
2022-08-05T07:57:13.658Z,5.80
2022-08-05T08:02:31.176Z,7.40
2022-08-05T08:07:59.730Z,6.90
2022-08-05T08:13:04.973Z,6.70
2022-08-05T08:18:14.281Z,5.30
2022-08-05T08:24:02.263Z,5.80
2022-08-05T08:28:55.236Z,5.90
2022-08-05T08:34:03.626Z,5.80
2022-08-05T08:39:15.351Z,7.90
2022-08-05T08:45:23.432Z,5.40
2022-08-05T08:50:05.963Z,6.00
2022-08-05T08:55:14.012Z,6.60
2022-08-05T09:00:23.590Z,5.60
2022-08-05T09:05:38.308Z,5.50
2022-08-05T09:10:52.136Z,7.10
2022-08-05T09:15:56.432Z,4.80
2022-08-05T09:20:59.854Z,4.90
2022-08-05T09:26:15.864Z,6.10
2022-08-05T09:32:41.209Z,6.00
2022-08-05T09:36:55.650Z,5.90
2022-08-05T09:42:05.021Z,7.00
2022-08-05T09:47:24.002Z,6.80
2022-08-05T09:52:28.356Z,6.20
2022-08-05T09:57:45.582Z,9.00
2022-08-05T10:02:58.038Z,5.20
2022-08-05T10:08:37.009Z,6.10
2022-08-05T10:13:47.813Z,6.00
2022-08-05T10:18:53.054Z,6.70
2022-08-05T10:24:00.467Z,6.00
2022-08-05T10:29:04.597Z,5.40
2022-08-05T10:34:10.452Z,8.80
2022-08-05T10:39:24.586Z,4.80
2022-08-05T10:44:32.740Z,5.70
2022-08-05T10:49:49.168Z,5.80
2022-08-05T10:55:10.272Z,7.60
2022-08-05T11:00:23.327Z,6.50
2022-08-05T11:05:29.251Z,5.70
2022-08-05T11:10:37.781Z,6.10
2022-08-05T11:16:34.048Z,6.40
2022-08-05T11:21:49.530Z,5.30
2022-08-05T11:27:50.914Z,3.80
2022-08-05T11:33:46.026Z,9.00
2022-08-05T11:38:54.910Z,6.60
2022-08-05T11:44:12.832Z,5.80
2022-08-05T11:49:36.616Z,5.60
2022-08-05T11:54:43.464Z,9.40
2022-08-05T11:59:52.264Z,4.80
2022-08-05T12:04:59.618Z,5.80
2022-08-05T12:10:09.229Z,4.00
2022-08-05T12:15:35.764Z,4.90
2022-08-05T12:20:42.156Z,4.60
2022-08-05T12:25:56.994Z,4.50
2022-08-05T12:31:02.069Z,5.90
2022-08-05T12:36:09.354Z,6.70
2022-08-05T12:41:16.437Z,5.50
2022-08-05T12:46:29.088Z,6.10
2022-08-05T12:52:14.291Z,5.70
2022-08-05T12:58:52.569Z,5.40
2022-08-05T13:03:02.460Z,5.00
2022-08-05T13:08:08.548Z,5.40
2022-08-05T13:13:12.310Z,4.90
2022-08-05T13:18:39.182Z,12.30
2022-08-05T13:23:50.674Z,5.80
2022-08-05T13:28:55.628Z,6.50
2022-08-05T13:34:21.145Z,6.90
2022-08-05T13:40:13.638Z,5.70
2022-08-05T13:44:47.094Z,7.30
2022-08-05T13:49:52.233Z,5.80
2022-08-05T13:54:57.299Z,5.40
2022-08-05T14:00:05.766Z,6.20
2022-08-05T14:05:15.313Z,5.00
2022-08-05T14:10:33.803Z,4.40
2022-08-05T14:16:08.395Z,5.80
2022-08-05T14:21:00.831Z,7.50
2022-08-05T14:26:36.207Z,6.60
2022-08-05T14:32:02.910Z,6.60
2022-08-05T14:37:13.322Z,5.10
2022-08-05T14:42:20.952Z,8.00
2022-08-05T14:48:03.446Z,5.60
2022-08-05T14:52:56.919Z,6.80
2022-08-05T14:58:01.953Z,6.90
2022-08-05T15:03:15.014Z,7.30
2022-08-05T15:08:58.444Z,6.20
2022-08-05T15:13:46.271Z,12.30
2022-08-05T15:18:53.836Z,6.80
2022-08-05T15:23:57.290Z,7.10
2022-08-05T15:29:02.474Z,6.80
2022-08-05T15:34:31.890Z,7.00
2022-08-05T15:40:58.698Z,7.90
2022-08-05T15:44:55.271Z,6.00
2022-08-05T15:49:59.523Z,6.70
2022-08-05T15:55:04.988Z,6.50
2022-08-05T16:00:12.509Z,7.00
2022-08-05T16:05:20.303Z,7.20
2022-08-05T16:10:26.745Z,7.70
2022-08-05T16:15:32.497Z,5.20
2022-08-05T16:20:37.670Z,6.60
2022-08-05T16:25:41.488Z,5.20
2022-08-05T16:30:45.145Z,5.30
2022-08-05T16:35:52.786Z,5.90
2022-08-05T16:41:01.434Z,5.80
2022-08-05T16:46:23.899Z,5.50
2022-08-05T16:51:30.827Z,7.90
2022-08-05T16:56:45.809Z,6.30
2022-08-05T17:01:56.358Z,5.50
2022-08-05T17:07:11.221Z,6.80
2022-08-05T17:12:15.192Z,8.60
2022-08-05T17:17:19.815Z,7.10
2022-08-05T17:22:26.139Z,6.30
2022-08-05T17:27:33.664Z,6.90
2022-08-05T17:32:37.900Z,6.80
2022-08-05T17:37:48.258Z,5.80
2022-08-05T17:42:53.581Z,7.30
2022-08-05T17:47:57.431Z,8.60
2022-08-05T17:53:04.613Z,7.60
2022-08-05T17:58:13.036Z,5.10
2022-08-05T18:03:48.510Z,8.50
2022-08-05T18:08:52.345Z,9.10
2022-08-05T18:13:56.266Z,8.70
2022-08-05T18:18:59.663Z,7.20
2022-08-05T18:24:04.314Z,7.50
2022-08-05T18:29:10.200Z,8.00
2022-08-05T18:34:14.001Z,8.10
2022-08-05T18:39:42.239Z,8.70
2022-08-05T18:44:51.523Z,8.50
2022-08-05T18:50:17.610Z,14.10
2022-08-05T18:55:22.398Z,19.00
2022-08-05T19:00:29.125Z,14.70
2022-08-05T19:06:12.178Z,13.90
2022-08-05T19:11:02.769Z,14.00
2022-08-05T19:16:25.173Z,9.30
2022-08-05T19:21:34.605Z,10.50
2022-08-05T19:26:43.791Z,12.20
2022-08-05T19:31:58.750Z,10.00
2022-08-05T19:37:02.811Z,9.50
2022-08-05T19:42:09.135Z,10.90
2022-08-05T19:47:15.100Z,9.90
2022-08-05T19:52:31.227Z,10.90
2022-08-05T19:57:49.169Z,7.80
2022-08-05T20:02:59.681Z,11.30
2022-08-05T20:08:03.401Z,10.00
2022-08-05T20:13:08.145Z,11.10
2022-08-05T20:18:33.914Z,10.80
2022-08-05T20:23:51.626Z,9.00
2022-08-05T20:29:00.765Z,8.80
2022-08-05T20:34:04.382Z,8.50
2022-08-05T20:39:12.865Z,10.90
2022-08-05T20:44:30.308Z,11.10
2022-08-05T20:49:39.516Z,16.40
2022-08-05T20:55:55.595Z,11.90
2022-08-05T21:00:40.444Z,11.30
2022-08-05T21:05:47.556Z,12.40
2022-08-05T21:10:58.431Z,9.40
2022-08-05T21:16:02.413Z,10.60
2022-08-05T21:21:07.181Z,11.10
2022-08-05T21:26:15.105Z,10.00
2022-08-05T21:31:19.656Z,8.80
2022-08-05T21:36:30.057Z,11.60
2022-08-05T21:41:36.404Z,10.10
2022-08-05T21:46:40.383Z,13.00
2022-08-05T21:52:22.856Z,11.90
2022-08-05T21:57:30.247Z,11.50
2022-08-05T22:02:33.680Z,9.00
2022-08-05T22:07:40.052Z,7.50
2022-08-05T22:13:08.925Z,9.50
2022-08-05T22:18:25.806Z,7.50
2022-08-05T22:24:02.677Z,7.90
2022-08-05T22:29:11.797Z,9.10
2022-08-05T22:34:25.409Z,8.20
2022-08-05T22:39:34.797Z,6.70
2022-08-05T22:44:38.388Z,7.90
2022-08-05T22:50:18.205Z,7.10
2022-08-05T22:55:18.960Z,7.20
2022-08-05T23:00:24.286Z,8.00
2022-08-05T23:05:30.021Z,7.50
2022-08-05T23:10:39.618Z,9.80
2022-08-05T23:15:43.196Z,6.50
2022-08-05T23:20:53.737Z,8.10
2022-08-05T23:25:57.086Z,6.70
2022-08-05T23:31:15.971Z,8.00
2022-08-05T23:36:21.188Z,7.80
2022-08-05T23:41:34.251Z,7.30
2022-08-05T23:46:40.852Z,7.10
2022-08-05T23:52:05.552Z,10.10
2022-08-05T23:57:09.267Z,7.90
